sensor_id;sensor_type;location;lat;lon;timestamp;temperature;humidity
20728;DHT22;10525;50.154;8.198;2022-12-18T00:01:57;-8.70;99.90
20728;DHT22;10525;50.154;8.198;2022-12-18T00:04:27;-8.70;99.90
20728;DHT22;10525;50.154;8.198;2022-12-18T00:06:54;-8.80;99.90
20728;DHT22;10525;50.154;8.198;2022-12-18T00:09:21;-8.90;99.90
20728;DHT22;10525;50.154;8.198;2022-12-18T00:11:48;-8.90;99.90
20728;DHT22;10525;50.154;8.198;2022-12-18T00:14:15;-8.90;99.90
20728;DHT22;10525;50.154;8.198;2022-12-18T00:16:44;-9.00;99.90
20728;DHT22;10525;50.154;8.198;2022-12-18T00:19:12;-9.10;99.90
20728;DHT22;10525;50.154;8.198;2022-12-18T00:21:41;-8.90;99.90
20728;DHT22;10525;50.154;8.198;2022-12-18T00:24:08;-8.80;99.90
20728;DHT22;10525;50.154;8.198;2022-12-18T00:26:37;-8.80;99.90
20728;DHT22;10525;50.154;8.198;2022-12-18T00:29:06;-8.80;99.90
20728;DHT22;10525;50.154;8.198;2022-12-18T00:31:33;-8.90;99.90
20728;DHT22;10525;50.154;8.198;2022-12-18T00:34:00;-8.90;99.90
20728;DHT22;10525;50.154;8.198;2022-12-18T00:36:29;-9.00;99.90
20728;DHT22;10525;50.154;8.198;2022-12-18T00:38:59;-8.90;99.90
20728;DHT22;10525;50.154;8.198;2022-12-18T00:41:27;-9.00;99.90
20728;DHT22;10525;50.154;8.198;2022-12-18T00:44:13;-8.90;99.90
20728;DHT22;10525;50.154;8.198;2022-12-18T00:46:41;-8.90;99.90
20728;DHT22;10525;50.154;8.198;2022-12-18T00:49:09;-9.00;99.90
20728;DHT22;10525;50.154;8.198;2022-12-18T00:51:36;-9.10;99.90
20728;DHT22;10525;50.154;8.198;2022-12-18T00:54:04;-8.90;99.90
20728;DHT22;10525;50.154;8.198;2022-12-18T00:56:31;-9.10;99.90
20728;DHT22;10525;50.154;8.198;2022-12-18T00:58:57;-9.10;99.90
20728;DHT22;10525;50.154;8.198;2022-12-18T01:01:24;-9.10;99.90
20728;DHT22;10525;50.154;8.198;2022-12-18T01:03:51;-9.00;99.90
20728;DHT22;10525;50.154;8.198;2022-12-18T01:06:17;-8.70;99.90
20728;DHT22;10525;50.154;8.198;2022-12-18T01:08:44;-9.00;99.90
20728;DHT22;10525;50.154;8.198;2022-12-18T01:11:14;-8.90;99.90
20728;DHT22;10525;50.154;8.198;2022-12-18T01:13:42;-9.10;99.90
20728;DHT22;10525;50.154;8.198;2022-12-18T01:16:11;-9.10;99.90
20728;DHT22;10525;50.154;8.198;2022-12-18T01:18:38;-9.00;99.90
20728;DHT22;10525;50.154;8.198;2022-12-18T01:21:06;-9.00;99.90
20728;DHT22;10525;50.154;8.198;2022-12-18T01:23:33;-9.10;99.90
20728;DHT22;10525;50.154;8.198;2022-12-18T01:26:04;-9.10;99.90
20728;DHT22;10525;50.154;8.198;2022-12-18T01:28:33;-9.20;99.90
20728;DHT22;10525;50.154;8.198;2022-12-18T01:31:13;-9.20;99.90
20728;DHT22;10525;50.154;8.198;2022-12-18T01:33:40;-9.10;99.90
20728;DHT22;10525;50.154;8.198;2022-12-18T01:36:08;-9.10;99.90
20728;DHT22;10525;50.154;8.198;2022-12-18T01:38:35;-8.90;99.90
20728;DHT22;10525;50.154;8.198;2022-12-18T01:41:02;-9.10;99.90
20728;DHT22;10525;50.154;8.198;2022-12-18T01:43:46;-9.30;99.90
20728;DHT22;10525;50.154;8.198;2022-12-18T01:46:13;-8.90;99.90
20728;DHT22;10525;50.154;8.198;2022-12-18T01:48:41;-8.90;99.90
20728;DHT22;10525;50.154;8.198;2022-12-18T01:51:10;-8.90;99.90
20728;DHT22;10525;50.154;8.198;2022-12-18T01:53:39;-9.10;99.90
20728;DHT22;10525;50.154;8.198;2022-12-18T01:56:07;-8.90;99.90
20728;DHT22;10525;50.154;8.198;2022-12-18T01:58:39;-9.10;99.90
20728;DHT22;10525;50.154;8.198;2022-12-18T02:01:09;-9.00;99.90
20728;DHT22;10525;50.154;8.198;2022-12-18T02:03:36;-8.90;99.90
20728;DHT22;10525;50.154;8.198;2022-12-18T02:06:09;-9.20;99.90
20728;DHT22;10525;50.154;8.198;2022-12-18T02:08:43;-9.10;99.90
20728;DHT22;10525;50.154;8.198;2022-12-18T02:11:18;-9.00;99.90
20728;DHT22;10525;50.154;8.198;2022-12-18T02:13:53;-9.00;99.90
20728;DHT22;10525;50.154;8.198;2022-12-18T02:16:25;-8.90;99.90
20728;DHT22;10525;50.154;8.198;2022-12-18T02:18:59;-9.20;99.90
20728;DHT22;10525;50.154;8.198;2022-12-18T02:21:34;-9.30;99.90
20728;DHT22;10525;50.154;8.198;2022-12-18T02:24:15;-9.10;99.90
20728;DHT22;10525;50.154;8.198;2022-12-18T02:26:47;-9.00;99.90
20728;DHT22;10525;50.154;8.198;2022-12-18T02:29:17;-8.90;99.90
20728;DHT22;10525;50.154;8.198;2022-12-18T02:31:48;-8.50;99.90
20728;DHT22;10525;50.154;8.198;2022-12-18T02:34:18;-7.70;99.90
20728;DHT22;10525;50.154;8.198;2022-12-18T02:36:46;-7.30;99.90
20728;DHT22;10525;50.154;8.198;2022-12-18T02:39:16;-7.10;99.90
20728;DHT22;10525;50.154;8.198;2022-12-18T02:41:44;-7.00;99.90
20728;DHT22;10525;50.154;8.198;2022-12-18T02:44:12;-6.90;99.90
20728;DHT22;10525;50.154;8.198;2022-12-18T02:46:41;-6.70;99.90
20728;DHT22;10525;50.154;8.198;2022-12-18T02:49:16;-6.70;99.90
20728;DHT22;10525;50.154;8.198;2022-12-18T02:51:52;-6.70;99.90
20728;DHT22;10525;50.154;8.198;2022-12-18T02:54:27;-6.50;99.90
20728;DHT22;10525;50.154;8.198;2022-12-18T02:56:58;-6.50;99.90
20728;DHT22;10525;50.154;8.198;2022-12-18T02:59:33;-6.40;99.90
20728;DHT22;10525;50.154;8.198;2022-12-18T03:02:07;-6.60;99.90
20728;DHT22;10525;50.154;8.198;2022-12-18T03:04:45;-6.70;99.90
20728;DHT22;10525;50.154;8.198;2022-12-18T03:07:18;-6.80;99.90
20728;DHT22;10525;50.154;8.198;2022-12-18T03:09:49;-6.70;99.90
20728;DHT22;10525;50.154;8.198;2022-12-18T03:12:22;-6.70;99.90
20728;DHT22;10525;50.154;8.198;2022-12-18T03:14:54;-6.70;99.90
20728;DHT22;10525;50.154;8.198;2022-12-18T03:17:23;-6.80;99.90
20728;DHT22;10525;50.154;8.198;2022-12-18T03:19:53;-6.80;99.90
20728;DHT22;10525;50.154;8.198;2022-12-18T03:22:23;-7.00;99.90
20728;DHT22;10525;50.154;8.198;2022-12-18T03:24:52;-6.70;99.90
20728;DHT22;10525;50.154;8.198;2022-12-18T03:27:22;-6.70;99.90
20728;DHT22;10525;50.154;8.198;2022-12-18T03:29:52;-6.70;99.90
20728;DHT22;10525;50.154;8.198;2022-12-18T03:32:25;-6.80;99.90
20728;DHT22;10525;50.154;8.198;2022-12-18T03:34:56;-6.70;99.90
20728;DHT22;10525;50.154;8.198;2022-12-18T03:37:24;-6.80;99.90
20728;DHT22;10525;50.154;8.198;2022-12-18T03:39:51;-6.90;99.90
20728;DHT22;10525;50.154;8.198;2022-12-18T03:42:25;-6.80;99.90
20728;DHT22;10525;50.154;8.198;2022-12-18T03:44:59;-6.90;99.90
20728;DHT22;10525;50.154;8.198;2022-12-18T03:47:28;-6.90;99.90
20728;DHT22;10525;50.154;8.198;2022-12-18T03:49:59;-6.90;99.90
20728;DHT22;10525;50.154;8.198;2022-12-18T03:52:33;-7.00;99.90
20728;DHT22;10525;50.154;8.198;2022-12-18T03:55:03;-6.90;99.90
20728;DHT22;10525;50.154;8.198;2022-12-18T03:57:33;-6.90;99.90
20728;DHT22;10525;50.154;8.198;2022-12-18T04:00:04;-6.80;99.90
20728;DHT22;10525;50.154;8.198;2022-12-18T04:02:33;-6.60;99.90
20728;DHT22;10525;50.154;8.198;2022-12-18T04:05:03;-6.50;99.90
20728;DHT22;10525;50.154;8.198;2022-12-18T04:07:31;-6.30;99.90
20728;DHT22;10525;50.154;8.198;2022-12-18T04:10:00;-6.30;99.90
20728;DHT22;10525;50.154;8.198;2022-12-18T04:12:29;-6.20;99.90
20728;DHT22;10525;50.154;8.198;2022-12-18T04:14:57;-6.40;99.90
20728;DHT22;10525;50.154;8.198;2022-12-18T04:17:24;-6.40;99.90
20728;DHT22;10525;50.154;8.198;2022-12-18T04:19:50;-6.50;99.90
20728;DHT22;10525;50.154;8.198;2022-12-18T04:22:17;-6.50;99.90
20728;DHT22;10525;50.154;8.198;2022-12-18T04:24:44;-6.40;99.90
20728;DHT22;10525;50.154;8.198;2022-12-18T04:27:10;-6.30;99.90
20728;DHT22;10525;50.154;8.198;2022-12-18T04:29:37;-6.30;99.90
20728;DHT22;10525;50.154;8.198;2022-12-18T04:32:06;-6.10;99.90
20728;DHT22;10525;50.154;8.198;2022-12-18T04:34:33;-6.10;99.90
20728;DHT22;10525;50.154;8.198;2022-12-18T04:37:00;-6.10;99.90
20728;DHT22;10525;50.154;8.198;2022-12-18T04:39:26;-6.00;99.90
20728;DHT22;10525;50.154;8.198;2022-12-18T04:41:53;-5.90;99.90
20728;DHT22;10525;50.154;8.198;2022-12-18T04:44:20;-5.90;99.90
20728;DHT22;10525;50.154;8.198;2022-12-18T04:46:46;-5.80;99.90
20728;DHT22;10525;50.154;8.198;2022-12-18T04:49:14;-5.70;99.90
20728;DHT22;10525;50.154;8.198;2022-12-18T04:51:41;-5.60;99.90
20728;DHT22;10525;50.154;8.198;2022-12-18T04:54:08;-5.60;99.90
20728;DHT22;10525;50.154;8.198;2022-12-18T04:56:34;-5.70;99.90
20728;DHT22;10525;50.154;8.198;2022-12-18T04:59:01;-5.50;99.90
20728;DHT22;10525;50.154;8.198;2022-12-18T05:01:28;-5.40;99.90
20728;DHT22;10525;50.154;8.198;2022-12-18T05:03:54;-5.40;99.90
20728;DHT22;10525;50.154;8.198;2022-12-18T05:06:22;-5.40;99.90
20728;DHT22;10525;50.154;8.198;2022-12-18T05:08:49;-5.40;99.90
20728;DHT22;10525;50.154;8.198;2022-12-18T05:11:16;-5.30;99.90
20728;DHT22;10525;50.154;8.198;2022-12-18T05:13:44;-5.40;99.90
20728;DHT22;10525;50.154;8.198;2022-12-18T05:16:12;-5.40;99.90
20728;DHT22;10525;50.154;8.198;2022-12-18T05:18:39;-5.40;99.90
20728;DHT22;10525;50.154;8.198;2022-12-18T05:21:06;-5.40;99.90
20728;DHT22;10525;50.154;8.198;2022-12-18T05:23:34;-5.40;99.90
20728;DHT22;10525;50.154;8.198;2022-12-18T05:26:04;-5.40;99.90
20728;DHT22;10525;50.154;8.198;2022-12-18T05:28:32;-5.50;99.90
20728;DHT22;10525;50.154;8.198;2022-12-18T05:31:01;-5.40;99.90
20728;DHT22;10525;50.154;8.198;2022-12-18T05:33:30;-5.40;99.90
20728;DHT22;10525;50.154;8.198;2022-12-18T05:35:59;-5.50;99.90
20728;DHT22;10525;50.154;8.198;2022-12-18T05:38:26;-5.50;99.90
20728;DHT22;10525;50.154;8.198;2022-12-18T05:40:56;-5.40;99.90
20728;DHT22;10525;50.154;8.198;2022-12-18T05:43:26;-5.40;99.90
20728;DHT22;10525;50.154;8.198;2022-12-18T05:45:53;-5.40;99.90
20728;DHT22;10525;50.154;8.198;2022-12-18T05:48:21;-5.50;99.90
20728;DHT22;10525;50.154;8.198;2022-12-18T05:50:49;-5.50;99.90
20728;DHT22;10525;50.154;8.198;2022-12-18T05:53:18;-5.30;99.90
20728;DHT22;10525;50.154;8.198;2022-12-18T05:55:45;-5.30;99.90
20728;DHT22;10525;50.154;8.198;2022-12-18T05:58:14;-5.20;99.90
20728;DHT22;10525;50.154;8.198;2022-12-18T06:00:45;-5.30;99.90
20728;DHT22;10525;50.154;8.198;2022-12-18T06:03:13;-5.30;99.90
20728;DHT22;10525;50.154;8.198;2022-12-18T06:05:42;-5.30;99.90
20728;DHT22;10525;50.154;8.198;2022-12-18T06:08:09;-5.30;99.90
20728;DHT22;10525;50.154;8.198;2022-12-18T06:10:36;-5.20;99.90
20728;DHT22;10525;50.154;8.198;2022-12-18T06:13:03;-5.40;99.90
20728;DHT22;10525;50.154;8.198;2022-12-18T06:15:31;-5.40;99.90
20728;DHT22;10525;50.154;8.198;2022-12-18T06:17:59;-5.30;99.90
20728;DHT22;10525;50.154;8.198;2022-12-18T06:20:26;-5.30;99.90
20728;DHT22;10525;50.154;8.198;2022-12-18T06:22:53;-5.30;99.90
20728;DHT22;10525;50.154;8.198;2022-12-18T06:25:19;-5.40;99.90
20728;DHT22;10525;50.154;8.198;2022-12-18T06:27:47;-5.20;99.90
20728;DHT22;10525;50.154;8.198;2022-12-18T06:30:14;-5.30;99.90
20728;DHT22;10525;50.154;8.198;2022-12-18T06:32:42;-5.40;99.90
20728;DHT22;10525;50.154;8.198;2022-12-18T06:35:10;-5.30;99.90
20728;DHT22;10525;50.154;8.198;2022-12-18T06:37:36;-5.30;99.90
20728;DHT22;10525;50.154;8.198;2022-12-18T06:40:04;-5.30;99.90
20728;DHT22;10525;50.154;8.198;2022-12-18T06:42:31;-5.40;99.90
20728;DHT22;10525;50.154;8.198;2022-12-18T06:44:57;-5.30;99.90
20728;DHT22;10525;50.154;8.198;2022-12-18T06:47:24;-5.20;99.90
20728;DHT22;10525;50.154;8.198;2022-12-18T06:49:52;-5.20;99.90
20728;DHT22;10525;50.154;8.198;2022-12-18T06:52:19;-5.20;99.90
20728;DHT22;10525;50.154;8.198;2022-12-18T06:54:45;-5.30;99.90
20728;DHT22;10525;50.154;8.198;2022-12-18T06:57:12;-5.40;99.90
20728;DHT22;10525;50.154;8.198;2022-12-18T06:59:39;-5.50;99.90
20728;DHT22;10525;50.154;8.198;2022-12-18T07:02:06;-5.50;99.90
20728;DHT22;10525;50.154;8.198;2022-12-18T07:04:32;-5.40;99.90
20728;DHT22;10525;50.154;8.198;2022-12-18T07:07:00;-5.50;99.90
20728;DHT22;10525;50.154;8.198;2022-12-18T07:09:27;-5.50;99.90
20728;DHT22;10525;50.154;8.198;2022-12-18T07:11:54;-5.40;99.90
20728;DHT22;10525;50.154;8.198;2022-12-18T07:14:20;-5.40;99.90
20728;DHT22;10525;50.154;8.198;2022-12-18T07:16:47;-5.40;99.90
20728;DHT22;10525;50.154;8.198;2022-12-18T07:19:14;-5.30;99.90
20728;DHT22;10525;50.154;8.198;2022-12-18T07:21:40;-5.30;99.90
20728;DHT22;10525;50.154;8.198;2022-12-18T07:24:09;-5.40;99.90
20728;DHT22;10525;50.154;8.198;2022-12-18T07:26:35;-5.30;99.90
20728;DHT22;10525;50.154;8.198;2022-12-18T07:29:02;-5.30;99.90
20728;DHT22;10525;50.154;8.198;2022-12-18T07:31:29;-5.30;99.90
20728;DHT22;10525;50.154;8.198;2022-12-18T07:33:55;-5.20;99.90
20728;DHT22;10525;50.154;8.198;2022-12-18T07:36:22;-5.20;99.90
20728;DHT22;10525;50.154;8.198;2022-12-18T07:38:50;-5.30;99.90
20728;DHT22;10525;50.154;8.198;2022-12-18T07:41:18;-5.20;99.90
20728;DHT22;10525;50.154;8.198;2022-12-18T07:43:46;-5.10;99.90
20728;DHT22;10525;50.154;8.198;2022-12-18T07:46:14;-5.10;99.90
20728;DHT22;10525;50.154;8.198;2022-12-18T07:48:41;-5.00;99.90
20728;DHT22;10525;50.154;8.198;2022-12-18T07:51:08;-4.90;99.90
20728;DHT22;10525;50.154;8.198;2022-12-18T07:53:38;-4.90;99.90
20728;DHT22;10525;50.154;8.198;2022-12-18T07:56:07;-4.80;99.90
20728;DHT22;10525;50.154;8.198;2022-12-18T07:58:36;-4.80;99.90
20728;DHT22;10525;50.154;8.198;2022-12-18T08:01:03;-4.80;99.90
20728;DHT22;10525;50.154;8.198;2022-12-18T08:03:30;-4.80;99.90
20728;DHT22;10525;50.154;8.198;2022-12-18T08:05:59;-4.70;99.90
20728;DHT22;10525;50.154;8.198;2022-12-18T08:08:26;-4.70;99.90
20728;DHT22;10525;50.154;8.198;2022-12-18T08:10:53;-4.60;99.90
20728;DHT22;10525;50.154;8.198;2022-12-18T08:13:20;-4.70;99.90
20728;DHT22;10525;50.154;8.198;2022-12-18T08:15:55;-4.70;99.90
20728;DHT22;10525;50.154;8.198;2022-12-18T08:18:23;-4.70;99.90
20728;DHT22;10525;50.154;8.198;2022-12-18T08:20:50;-4.70;99.90
20728;DHT22;10525;50.154;8.198;2022-12-18T08:23:16;-4.70;99.90
20728;DHT22;10525;50.154;8.198;2022-12-18T08:25:43;-4.80;99.90
20728;DHT22;10525;50.154;8.198;2022-12-18T08:28:10;-4.80;99.90
20728;DHT22;10525;50.154;8.198;2022-12-18T08:30:37;-4.80;99.90
20728;DHT22;10525;50.154;8.198;2022-12-18T08:33:05;-4.80;99.90
20728;DHT22;10525;50.154;8.198;2022-12-18T08:35:35;-4.80;99.90
20728;DHT22;10525;50.154;8.198;2022-12-18T08:38:01;-4.80;99.90
20728;DHT22;10525;50.154;8.198;2022-12-18T08:40:28;-4.80;99.90
20728;DHT22;10525;50.154;8.198;2022-12-18T08:42:55;-4.80;99.90
20728;DHT22;10525;50.154;8.198;2022-12-18T08:45:39;-4.70;99.90
20728;DHT22;10525;50.154;8.198;2022-12-18T08:48:07;-4.90;99.90
20728;DHT22;10525;50.154;8.198;2022-12-18T08:50:34;-4.80;99.90
20728;DHT22;10525;50.154;8.198;2022-12-18T08:53:01;-4.90;99.90
20728;DHT22;10525;50.154;8.198;2022-12-18T08:55:28;-4.60;99.90
20728;DHT22;10525;50.154;8.198;2022-12-18T08:57:55;-4.80;99.90
20728;DHT22;10525;50.154;8.198;2022-12-18T09:00:21;-4.70;99.90
20728;DHT22;10525;50.154;8.198;2022-12-18T09:02:48;-4.70;99.90
20728;DHT22;10525;50.154;8.198;2022-12-18T09:05:16;-4.70;99.90
20728;DHT22;10525;50.154;8.198;2022-12-18T09:07:43;-4.60;99.90
20728;DHT22;10525;50.154;8.198;2022-12-18T09:10:10;-4.60;99.90
20728;DHT22;10525;50.154;8.198;2022-12-18T09:12:36;-4.60;99.90
20728;DHT22;10525;50.154;8.198;2022-12-18T09:15:04;-4.60;99.90
20728;DHT22;10525;50.154;8.198;2022-12-18T09:17:31;-4.70;99.90
20728;DHT22;10525;50.154;8.198;2022-12-18T09:19:57;-4.80;99.90
20728;DHT22;10525;50.154;8.198;2022-12-18T09:22:25;-4.80;99.90
20728;DHT22;10525;50.154;8.198;2022-12-18T09:24:52;-4.80;99.90
20728;DHT22;10525;50.154;8.198;2022-12-18T09:27:19;-4.70;99.90
20728;DHT22;10525;50.154;8.198;2022-12-18T09:29:46;-4.70;99.90
20728;DHT22;10525;50.154;8.198;2022-12-18T09:32:12;-4.80;99.90
20728;DHT22;10525;50.154;8.198;2022-12-18T09:34:39;-4.70;99.90
20728;DHT22;10525;50.154;8.198;2022-12-18T09:37:06;-4.70;99.90
20728;DHT22;10525;50.154;8.198;2022-12-18T09:39:34;-4.60;99.90
20728;DHT22;10525;50.154;8.198;2022-12-18T09:42:01;-4.50;99.90
20728;DHT22;10525;50.154;8.198;2022-12-18T09:44:31;-4.40;99.90
20728;DHT22;10525;50.154;8.198;2022-12-18T09:47:06;-4.40;99.90
20728;DHT22;10525;50.154;8.198;2022-12-18T09:49:37;-4.40;99.90
20728;DHT22;10525;50.154;8.198;2022-12-18T09:52:11;-4.30;99.90
20728;DHT22;10525;50.154;8.198;2022-12-18T09:54:42;-4.30;99.90
20728;DHT22;10525;50.154;8.198;2022-12-18T09:57:18;-4.40;99.90
20728;DHT22;10525;50.154;8.198;2022-12-18T09:59:50;-4.40;99.90
20728;DHT22;10525;50.154;8.198;2022-12-18T10:02:20;-4.60;99.90
20728;DHT22;10525;50.154;8.198;2022-12-18T10:05:00;-4.40;99.90
20728;DHT22;10525;50.154;8.198;2022-12-18T10:07:33;-4.50;99.90
20728;DHT22;10525;50.154;8.198;2022-12-18T10:10:07;-4.40;99.90
20728;DHT22;10525;50.154;8.198;2022-12-18T10:12:42;-4.30;99.90
20728;DHT22;10525;50.154;8.198;2022-12-18T10:15:19;-4.20;99.90
20728;DHT22;10525;50.154;8.198;2022-12-18T10:17:53;-4.00;99.90
20728;DHT22;10525;50.154;8.198;2022-12-18T10:20:26;-4.10;99.90
20728;DHT22;10525;50.154;8.198;2022-12-18T10:22:59;-4.20;99.90
20728;DHT22;10525;50.154;8.198;2022-12-18T10:25:34;-4.10;99.90
20728;DHT22;10525;50.154;8.198;2022-12-18T10:28:10;-4.20;99.90
20728;DHT22;10525;50.154;8.198;2022-12-18T10:30:38;-4.20;99.90
20728;DHT22;10525;50.154;8.198;2022-12-18T10:33:08;-4.20;99.90
20728;DHT22;10525;50.154;8.198;2022-12-18T10:35:40;-4.20;99.90
20728;DHT22;10525;50.154;8.198;2022-12-18T10:38:21;-4.00;99.90
20728;DHT22;10525;50.154;8.198;2022-12-18T10:40:51;-3.70;99.90
20728;DHT22;10525;50.154;8.198;2022-12-18T10:43:24;-3.70;99.90
20728;DHT22;10525;50.154;8.198;2022-12-18T10:46:15;-3.90;99.90
20728;DHT22;10525;50.154;8.198;2022-12-18T10:48:52;-4.00;99.90
20728;DHT22;10525;50.154;8.198;2022-12-18T10:51:21;-3.90;99.90
20728;DHT22;10525;50.154;8.198;2022-12-18T10:53:53;-4.00;99.90
20728;DHT22;10525;50.154;8.198;2022-12-18T10:56:24;-3.90;99.90
20728;DHT22;10525;50.154;8.198;2022-12-18T10:58:57;-3.80;99.90
20728;DHT22;10525;50.154;8.198;2022-12-18T11:01:24;-3.60;99.90
20728;DHT22;10525;50.154;8.198;2022-12-18T11:04:00;-3.40;99.90
20728;DHT22;10525;50.154;8.198;2022-12-18T11:06:27;-3.40;99.90
20728;DHT22;10525;50.154;8.198;2022-12-18T11:08:58;-3.30;99.90
20728;DHT22;10525;50.154;8.198;2022-12-18T11:11:27;-3.30;99.90
20728;DHT22;10525;50.154;8.198;2022-12-18T11:13:59;-3.40;99.90
20728;DHT22;10525;50.154;8.198;2022-12-18T11:16:28;-3.70;99.90
20728;DHT22;10525;50.154;8.198;2022-12-18T11:19:13;-3.80;99.90
20728;DHT22;10525;50.154;8.198;2022-12-18T11:21:41;-3.70;99.90
20728;DHT22;10525;50.154;8.198;2022-12-18T11:24:19;-3.60;99.90
20728;DHT22;10525;50.154;8.198;2022-12-18T11:26:48;-3.60;99.90
20728;DHT22;10525;50.154;8.198;2022-12-18T11:29:17;-3.50;99.90
20728;DHT22;10525;50.154;8.198;2022-12-18T11:31:44;-3.60;99.90
20728;DHT22;10525;50.154;8.198;2022-12-18T11:34:13;-3.60;99.90
20728;DHT22;10525;50.154;8.198;2022-12-18T11:36:44;-3.80;99.90
20728;DHT22;10525;50.154;8.198;2022-12-18T11:39:16;-3.70;99.90
20728;DHT22;10525;50.154;8.198;2022-12-18T11:41:50;-3.50;99.90
20728;DHT22;10525;50.154;8.198;2022-12-18T11:44:42;-3.70;99.90
20728;DHT22;10525;50.154;8.198;2022-12-18T11:47:19;-3.70;99.90
20728;DHT22;10525;50.154;8.198;2022-12-18T11:49:49;-3.60;99.90
20728;DHT22;10525;50.154;8.198;2022-12-18T11:52:19;-3.30;99.90
20728;DHT22;10525;50.154;8.198;2022-12-18T11:54:51;-3.70;99.90
20728;DHT22;10525;50.154;8.198;2022-12-18T11:57:29;-3.70;99.90
20728;DHT22;10525;50.154;8.198;2022-12-18T12:00:07;-3.80;99.90
20728;DHT22;10525;50.154;8.198;2022-12-18T12:03:00;-3.70;99.90
20728;DHT22;10525;50.154;8.198;2022-12-18T12:05:39;-3.90;99.90
20728;DHT22;10525;50.154;8.198;2022-12-18T12:08:15;-4.00;99.90
20728;DHT22;10525;50.154;8.198;2022-12-18T12:10:53;-3.80;99.90
20728;DHT22;10525;50.154;8.198;2022-12-18T12:13:33;-3.70;99.90
20728;DHT22;10525;50.154;8.198;2022-12-18T12:16:09;-3.70;99.90
20728;DHT22;10525;50.154;8.198;2022-12-18T12:18:51;-3.70;99.90
20728;DHT22;10525;50.154;8.198;2022-12-18T12:21:26;-3.50;99.90
20728;DHT22;10525;50.154;8.198;2022-12-18T12:23:59;-3.60;99.90
20728;DHT22;10525;50.154;8.198;2022-12-18T12:26:33;-3.80;99.90
20728;DHT22;10525;50.154;8.198;2022-12-18T12:29:21;-3.90;99.90
20728;DHT22;10525;50.154;8.198;2022-12-18T12:32:01;-4.00;99.90
20728;DHT22;10525;50.154;8.198;2022-12-18T12:34:38;-4.00;99.90
20728;DHT22;10525;50.154;8.198;2022-12-18T12:37:21;-3.80;99.90
20728;DHT22;10525;50.154;8.198;2022-12-18T12:39:51;-3.80;99.90
20728;DHT22;10525;50.154;8.198;2022-12-18T12:42:26;-4.00;99.90
20728;DHT22;10525;50.154;8.198;2022-12-18T12:45:20;-3.90;99.90
20728;DHT22;10525;50.154;8.198;2022-12-18T12:47:49;-4.00;99.90
20728;DHT22;10525;50.154;8.198;2022-12-18T12:50:19;-4.20;99.90
20728;DHT22;10525;50.154;8.198;2022-12-18T12:52:48;-4.10;99.90
20728;DHT22;10525;50.154;8.198;2022-12-18T12:55:19;-4.10;99.90
20728;DHT22;10525;50.154;8.198;2022-12-18T12:57:51;-4.20;99.90
20728;DHT22;10525;50.154;8.198;2022-12-18T13:00:23;-4.20;99.90
20728;DHT22;10525;50.154;8.198;2022-12-18T13:02:59;-4.30;99.90
20728;DHT22;10525;50.154;8.198;2022-12-18T13:05:36;-4.50;99.90
20728;DHT22;10525;50.154;8.198;2022-12-18T13:08:07;-4.60;99.90
20728;DHT22;10525;50.154;8.198;2022-12-18T13:10:36;-4.60;99.90
20728;DHT22;10525;50.154;8.198;2022-12-18T13:13:05;-4.30;99.90
20728;DHT22;10525;50.154;8.198;2022-12-18T13:15:36;-4.40;99.90
20728;DHT22;10525;50.154;8.198;2022-12-18T13:18:16;-4.20;99.90
20728;DHT22;10525;50.154;8.198;2022-12-18T13:20:44;-4.40;99.90
20728;DHT22;10525;50.154;8.198;2022-12-18T13:23:32;-4.70;99.90
20728;DHT22;10525;50.154;8.198;2022-12-18T13:26:27;-4.70;99.90
20728;DHT22;10525;50.154;8.198;2022-12-18T13:28:53;-4.70;99.90
20728;DHT22;10525;50.154;8.198;2022-12-18T13:34:35;-4.70;99.90
20728;DHT22;10525;50.154;8.198;2022-12-18T13:37:40;-4.70;99.90
20728;DHT22;10525;50.154;8.198;2022-12-18T13:43:26;-4.80;99.90
20728;DHT22;10525;50.154;8.198;2022-12-18T13:46:22;-4.80;99.90
20728;DHT22;10525;50.154;8.198;2022-12-18T13:48:59;-4.70;99.90
20728;DHT22;10525;50.154;8.198;2022-12-18T13:51:27;-4.70;99.90
20728;DHT22;10525;50.154;8.198;2022-12-18T13:53:58;-4.80;99.90
20728;DHT22;10525;50.154;8.198;2022-12-18T13:56:26;-4.70;99.90
20728;DHT22;10525;50.154;8.198;2022-12-18T13:59:14;-4.80;99.90
20728;DHT22;10525;50.154;8.198;2022-12-18T14:01:48;-4.70;99.90
20728;DHT22;10525;50.154;8.198;2022-12-18T14:04:24;-4.80;99.90
20728;DHT22;10525;50.154;8.198;2022-12-18T14:06:53;-4.80;99.90
20728;DHT22;10525;50.154;8.198;2022-12-18T14:09:25;-4.80;99.90
20728;DHT22;10525;50.154;8.198;2022-12-18T14:11:53;-4.80;99.90
20728;DHT22;10525;50.154;8.198;2022-12-18T14:14:43;-4.80;99.90
20728;DHT22;10525;50.154;8.198;2022-12-18T14:17:13;-4.90;99.90
20728;DHT22;10525;50.154;8.198;2022-12-18T14:19:42;-4.90;99.90
20728;DHT22;10525;50.154;8.198;2022-12-18T14:22:18;-4.80;99.90
20728;DHT22;10525;50.154;8.198;2022-12-18T14:24:45;-4.80;99.90
20728;DHT22;10525;50.154;8.198;2022-12-18T14:27:24;-4.80;99.90
20728;DHT22;10525;50.154;8.198;2022-12-18T14:29:51;-4.90;99.90
20728;DHT22;10525;50.154;8.198;2022-12-18T14:32:20;-4.90;99.90
20728;DHT22;10525;50.154;8.198;2022-12-18T14:34:48;-5.10;99.90
20728;DHT22;10525;50.154;8.198;2022-12-18T14:37:17;-5.00;99.90
20728;DHT22;10525;50.154;8.198;2022-12-18T14:39:56;-4.90;99.90
20728;DHT22;10525;50.154;8.198;2022-12-18T14:42:24;-4.90;99.90
20728;DHT22;10525;50.154;8.198;2022-12-18T14:47:56;-5.00;99.90
20728;DHT22;10525;50.154;8.198;2022-12-18T14:50:23;-5.00;99.90
20728;DHT22;10525;50.154;8.198;2022-12-18T14:52:50;-5.10;99.90
20728;DHT22;10525;50.154;8.198;2022-12-18T14:55:18;-4.90;99.90
20728;DHT22;10525;50.154;8.198;2022-12-18T14:57:49;-4.90;99.90
20728;DHT22;10525;50.154;8.198;2022-12-18T15:00:18;-5.10;99.90
20728;DHT22;10525;50.154;8.198;2022-12-18T15:02:46;-5.20;99.90
20728;DHT22;10525;50.154;8.198;2022-12-18T15:05:19;-5.00;99.90
20728;DHT22;10525;50.154;8.198;2022-12-18T15:07:48;-5.20;99.90
20728;DHT22;10525;50.154;8.198;2022-12-18T15:10:16;-5.20;99.90
20728;DHT22;10525;50.154;8.198;2022-12-18T15:12:45;-5.30;99.90
20728;DHT22;10525;50.154;8.198;2022-12-18T15:15:44;-5.30;99.90
20728;DHT22;10525;50.154;8.198;2022-12-18T15:18:13;-5.30;99.90
20728;DHT22;10525;50.154;8.198;2022-12-18T15:20:45;-5.20;99.90
20728;DHT22;10525;50.154;8.198;2022-12-18T15:23:16;-5.30;99.90
20728;DHT22;10525;50.154;8.198;2022-12-18T15:25:43;-5.30;99.90
20728;DHT22;10525;50.154;8.198;2022-12-18T15:28:21;-5.20;99.90
20728;DHT22;10525;50.154;8.198;2022-12-18T15:30:59;-5.20;99.90
20728;DHT22;10525;50.154;8.198;2022-12-18T15:33:29;-5.20;99.90
20728;DHT22;10525;50.154;8.198;2022-12-18T15:35:58;-5.20;99.90
20728;DHT22;10525;50.154;8.198;2022-12-18T15:38:26;-5.10;99.90
20728;DHT22;10525;50.154;8.198;2022-12-18T15:40:53;-5.10;99.90
20728;DHT22;10525;50.154;8.198;2022-12-18T15:43:21;-5.10;99.90
20728;DHT22;10525;50.154;8.198;2022-12-18T15:46:00;-5.10;99.90
20728;DHT22;10525;50.154;8.198;2022-12-18T15:48:27;-5.10;99.90
20728;DHT22;10525;50.154;8.198;2022-12-18T15:50:55;-5.10;99.90
20728;DHT22;10525;50.154;8.198;2022-12-18T15:53:26;-5.10;99.90
20728;DHT22;10525;50.154;8.198;2022-12-18T15:55:54;-5.10;99.90
20728;DHT22;10525;50.154;8.198;2022-12-18T15:58:38;-5.10;99.90
20728;DHT22;10525;50.154;8.198;2022-12-18T16:01:05;-5.10;99.90